createdAt,value
2023-02-09T00:01:24.928Z,1.22
2023-02-09T00:03:52.177Z,1.26
2023-02-09T00:06:21.182Z,1.29
2023-02-09T00:08:48.223Z,1.25
2023-02-09T00:11:47.385Z,1.28
2023-02-09T00:14:17.354Z,1.28
2023-02-09T00:16:44.357Z,1.35
2023-02-09T00:19:11.972Z,1.45
2023-02-09T00:21:39.393Z,1.46
2023-02-09T00:24:06.942Z,1.40
2023-02-09T00:26:33.646Z,1.29
2023-02-09T00:29:00.098Z,1.23
2023-02-09T00:31:26.582Z,1.31
2023-02-09T00:33:52.985Z,1.26
2023-02-09T00:36:19.431Z,1.32
2023-02-09T00:38:45.837Z,1.31
2023-02-09T00:41:13.745Z,1.21
2023-02-09T00:43:41.205Z,1.26
2023-02-09T00:46:08.461Z,1.29
2023-02-09T00:48:35.299Z,1.18
2023-02-09T00:51:02.098Z,1.11
2023-02-09T00:53:28.626Z,1.12
2023-02-09T00:55:54.978Z,1.07
2023-02-09T00:58:21.450Z,1.00
2023-02-09T01:00:48.995Z,1.12
2023-02-09T01:03:15.536Z,1.01
2023-02-09T01:05:42.918Z,0.99
2023-02-09T01:08:09.488Z,1.02
2023-02-09T01:10:37.927Z,0.95
2023-02-09T01:13:04.395Z,0.91
2023-02-09T01:15:30.818Z,0.96
2023-02-09T01:17:58.875Z,0.99
2023-02-09T01:20:25.254Z,0.98
2023-02-09T01:22:51.751Z,1.00
2023-02-09T01:25:18.348Z,0.98
2023-02-09T01:27:44.756Z,1.04
2023-02-09T01:30:11.771Z,0.93
2023-02-09T01:32:38.141Z,0.95
2023-02-09T01:35:04.977Z,0.97
2023-02-09T01:37:33.856Z,1.02
2023-02-09T01:40:00.276Z,1.00
2023-02-09T01:42:26.817Z,1.00
2023-02-09T01:45:15.793Z,1.03
2023-02-09T01:47:47.109Z,1.02
2023-02-09T01:50:14.585Z,0.95
2023-02-09T01:52:42.341Z,1.01
2023-02-09T01:55:12.869Z,1.05
2023-02-09T01:57:46.419Z,1.04
2023-02-09T02:00:18.064Z,1.13
2023-02-09T02:02:52.183Z,1.07
2023-02-09T02:05:19.685Z,0.93
2023-02-09T02:07:49.994Z,0.96
2023-02-09T02:10:16.466Z,1.03
2023-02-09T02:12:43.596Z,1.04
2023-02-09T02:15:10.031Z,0.94
2023-02-09T02:18:16.260Z,0.92
2023-02-09T02:21:03.294Z,1.02
2023-02-09T02:23:44.610Z,1.04
2023-02-09T02:26:29.483Z,1.03
2023-02-09T02:29:25.164Z,0.93
2023-02-09T02:32:15.914Z,0.95
2023-02-09T02:35:21.414Z,0.82
2023-02-09T02:38:05.913Z,0.86
2023-02-09T02:40:46.308Z,0.85
2023-02-09T02:43:23.865Z,0.88
2023-02-09T02:46:05.899Z,0.80
2023-02-09T02:48:44.197Z,0.80
2023-02-09T02:51:10.525Z,0.78
2023-02-09T02:53:39.932Z,0.95
2023-02-09T02:56:12.540Z,0.80
2023-02-09T02:58:42.276Z,0.77
2023-02-09T03:01:13.189Z,0.65
2023-02-09T03:03:41.717Z,0.67
2023-02-09T03:06:10.492Z,0.78
2023-02-09T03:08:47.559Z,0.86
2023-02-09T03:11:13.922Z,0.77
2023-02-09T03:13:53.834Z,0.65
2023-02-09T03:16:38.599Z,0.79
2023-02-09T03:19:14.179Z,0.72
2023-02-09T03:22:01.164Z,0.71
2023-02-09T03:24:45.177Z,0.78
2023-02-09T03:27:36.289Z,0.66
2023-02-09T03:30:04.676Z,0.65
2023-02-09T03:32:32.010Z,0.56
2023-02-09T03:34:59.099Z,0.52
2023-02-09T03:37:25.976Z,0.58
2023-02-09T03:39:52.459Z,0.54
2023-02-09T03:42:19.148Z,0.49
2023-02-09T03:44:45.553Z,0.53
2023-02-09T03:47:12.016Z,0.49
2023-02-09T03:49:40.456Z,0.50
2023-02-09T03:52:09.339Z,0.42
2023-02-09T03:54:35.972Z,0.27
2023-02-09T03:57:02.429Z,0.34
2023-02-09T03:59:29.432Z,0.40
2023-02-09T04:01:58.395Z,0.38
2023-02-09T04:04:25.778Z,0.46
2023-02-09T04:06:52.434Z,0.56
2023-02-09T04:09:19.509Z,0.30
2023-02-09T04:11:47.154Z,0.34
2023-02-09T04:14:13.673Z,0.45
2023-02-09T04:16:40.143Z,0.49
2023-02-09T04:19:09.014Z,0.35
2023-02-09T04:21:37.113Z,0.32
2023-02-09T04:24:03.658Z,0.36
2023-02-09T04:26:30.055Z,0.40
2023-02-09T04:28:56.476Z,0.48
2023-02-09T04:31:23.012Z,0.36
2023-02-09T04:33:49.525Z,0.42
2023-02-09T04:36:15.985Z,0.36
2023-02-09T04:38:42.399Z,0.38
2023-02-09T04:41:08.913Z,0.34
2023-02-09T04:43:35.915Z,0.40
2023-02-09T04:46:02.683Z,0.36
2023-02-09T04:48:30.314Z,0.33
2023-02-09T04:50:57.110Z,0.34
2023-02-09T04:53:23.730Z,0.30
2023-02-09T04:55:51.942Z,0.33
2023-02-09T04:58:39.447Z,0.40
2023-02-09T05:01:07.510Z,0.32
2023-02-09T05:03:34.130Z,0.38
2023-02-09T05:06:04.003Z,0.34
2023-02-09T05:08:31.560Z,0.28
2023-02-09T05:10:58.246Z,0.26
2023-02-09T05:13:25.417Z,0.21
2023-02-09T05:15:52.752Z,0.19
2023-02-09T05:18:19.472Z,0.20
2023-02-09T05:20:47.690Z,0.30
2023-02-09T05:23:14.688Z,0.29
2023-02-09T05:25:41.824Z,0.17
2023-02-09T05:28:08.566Z,0.28
2023-02-09T05:30:35.100Z,0.20
2023-02-09T05:33:03.034Z,0.26
2023-02-09T05:35:29.394Z,0.04
2023-02-09T05:37:55.760Z,0.10
2023-02-09T05:40:22.121Z,0.16
2023-02-09T05:42:48.527Z,0.12
2023-02-09T05:45:14.937Z,0.13
2023-02-09T05:47:41.351Z,0.07
2023-02-09T05:50:07.877Z,0.02
2023-02-09T05:52:34.800Z,0.04
2023-02-09T05:55:01.321Z,-0.05
2023-02-09T05:57:27.745Z,0.01
2023-02-09T05:59:54.181Z,0.09
2023-02-09T06:02:20.910Z,-0.01
2023-02-09T06:04:47.423Z,0.10
2023-02-09T06:07:13.893Z,0.11
2023-02-09T06:09:40.316Z,-0.02
2023-02-09T06:12:06.750Z,0.05
2023-02-09T06:14:33.198Z,0.19
2023-02-09T06:16:59.591Z,0.19
2023-02-09T06:19:26.060Z,0.24
2023-02-09T06:21:52.552Z,0.25
2023-02-09T06:24:18.973Z,0.14
2023-02-09T06:26:45.448Z,0.17
2023-02-09T06:29:13.106Z,0.20
2023-02-09T06:31:41.762Z,0.06
2023-02-09T06:34:09.349Z,-0.15
2023-02-09T06:36:35.967Z,-0.23
2023-02-09T06:39:02.443Z,-0.07
2023-02-09T06:41:28.797Z,0.08
2023-02-09T06:43:55.190Z,0.17
2023-02-09T06:46:21.711Z,0.06
2023-02-09T06:48:48.154Z,0.00
2023-02-09T06:51:17.008Z,-0.20
2023-02-09T06:53:44.228Z,-0.14
2023-02-09T06:56:12.294Z,0.11
2023-02-09T06:58:41.515Z,0.02
2023-02-09T07:01:10.571Z,-0.01
2023-02-09T07:03:37.760Z,0.07
2023-02-09T07:06:15.128Z,-0.03
2023-02-09T07:08:41.854Z,-0.03
2023-02-09T07:11:11.205Z,-0.12
2023-02-09T07:13:37.919Z,-0.05
2023-02-09T07:16:06.478Z,0.08
2023-02-09T07:18:33.183Z,0.08
2023-02-09T07:21:02.498Z,0.20
2023-02-09T07:23:29.669Z,0.22
2023-02-09T07:25:56.527Z,0.18
2023-02-09T07:28:23.341Z,0.03
2023-02-09T07:30:54.643Z,0.00
2023-02-09T07:33:21.804Z,-0.08
2023-02-09T07:35:48.810Z,-0.11
2023-02-09T07:38:15.524Z,0.13
2023-02-09T07:40:46.380Z,0.09
2023-02-09T07:43:13.723Z,0.11
2023-02-09T07:45:41.702Z,0.15
2023-02-09T07:48:10.662Z,0.04
2023-02-09T07:50:37.819Z,0.20
2023-02-09T07:53:04.336Z,0.22
2023-02-09T07:55:30.782Z,0.20
2023-02-09T07:57:57.343Z,0.22
2023-02-09T08:00:24.302Z,0.29
2023-02-09T08:02:50.819Z,0.11
2023-02-09T08:05:25.391Z,0.09
2023-02-09T08:07:51.844Z,0.21
2023-02-09T08:10:18.907Z,0.29
2023-02-09T08:13:00.820Z,0.32
2023-02-09T08:15:31.615Z,0.33
2023-02-09T08:18:01.637Z,0.30
2023-02-09T08:20:31.049Z,0.26
2023-02-09T08:23:04.846Z,0.47
2023-02-09T08:25:31.634Z,0.36
2023-02-09T08:27:58.176Z,0.47
2023-02-09T08:30:24.604Z,0.31
2023-02-09T08:32:51.094Z,0.22
2023-02-09T08:35:17.842Z,0.39
2023-02-09T08:37:44.318Z,0.32
2023-02-09T08:40:11.232Z,0.37
2023-02-09T08:42:37.736Z,0.56
2023-02-09T08:45:04.392Z,0.59
2023-02-09T08:47:30.784Z,0.49
2023-02-09T08:49:58.028Z,0.57
2023-02-09T08:52:24.723Z,0.55
2023-02-09T08:54:51.138Z,0.63
2023-02-09T08:57:17.530Z,0.63
2023-02-09T08:59:43.964Z,0.71
2023-02-09T09:02:10.333Z,0.76
2023-02-09T09:04:36.808Z,0.76
2023-02-09T09:07:03.225Z,0.71
2023-02-09T09:09:29.618Z,0.77
2023-02-09T09:11:56.859Z,0.69
2023-02-09T09:14:23.310Z,0.76
2023-02-09T09:16:49.890Z,0.81
2023-02-09T09:19:16.322Z,0.85
2023-02-09T09:21:42.702Z,0.92
2023-02-09T09:24:09.205Z,1.02
2023-02-09T09:26:35.830Z,1.16
2023-02-09T09:29:02.515Z,0.85
2023-02-09T09:31:30.944Z,0.61
2023-02-09T09:33:57.479Z,0.75
2023-02-09T09:36:23.874Z,0.96
2023-02-09T09:38:50.411Z,1.12
2023-02-09T09:41:20.816Z,0.82
2023-02-09T09:43:47.716Z,0.85
2023-02-09T09:46:22.164Z,1.08
2023-02-09T09:48:56.048Z,1.00
2023-02-09T09:51:44.308Z,0.83
2023-02-09T09:54:15.980Z,0.71
2023-02-09T09:56:42.594Z,1.05
2023-02-09T09:59:16.763Z,1.14
2023-02-09T10:01:43.701Z,1.17
2023-02-09T10:04:14.424Z,1.25
2023-02-09T10:06:43.970Z,1.44
2023-02-09T10:09:32.409Z,1.55
2023-02-09T10:12:11.797Z,1.54
2023-02-09T10:14:38.200Z,1.63
2023-02-09T10:17:06.192Z,1.18
2023-02-09T10:19:32.782Z,1.22
2023-02-09T10:21:59.178Z,1.44
2023-02-09T10:24:33.764Z,1.52
2023-02-09T10:27:26.000Z,1.64
2023-02-09T10:29:52.587Z,1.66
2023-02-09T10:32:22.240Z,1.71
2023-02-09T10:34:51.630Z,1.87
2023-02-09T10:37:27.876Z,2.00
2023-02-09T10:40:12.616Z,1.98
2023-02-09T10:42:57.384Z,1.98
2023-02-09T10:45:23.699Z,2.02
2023-02-09T10:48:13.184Z,1.92
2023-02-09T10:50:52.377Z,2.02
2023-02-09T10:53:27.140Z,1.98
2023-02-09T10:56:15.144Z,1.95
2023-02-09T10:58:42.106Z,2.08
2023-02-09T11:01:11.233Z,2.01
2023-02-09T11:03:56.743Z,2.16
2023-02-09T11:06:23.222Z,2.31
2023-02-09T11:08:57.826Z,2.19
2023-02-09T11:11:37.616Z,2.27
2023-02-09T11:14:10.247Z,2.10
2023-02-09T11:16:59.337Z,1.85
2023-02-09T11:19:44.544Z,1.91
2023-02-09T11:22:16.398Z,1.75
2023-02-09T11:25:04.721Z,1.87
2023-02-09T11:27:55.700Z,1.65
2023-02-09T11:30:45.854Z,1.62
2023-02-09T11:33:42.483Z,1.55
2023-02-09T11:36:46.129Z,1.81
2023-02-09T11:39:40.553Z,1.95
2023-02-09T11:42:33.991Z,2.10
2023-02-09T11:45:16.368Z,1.99
2023-02-09T11:48:07.881Z,2.08
2023-02-09T11:50:46.892Z,2.05
2023-02-09T11:53:32.158Z,2.01
2023-02-09T11:56:02.035Z,2.13
2023-02-09T11:58:51.355Z,2.35
2023-02-09T12:01:22.178Z,2.50
2023-02-09T12:03:59.011Z,2.49
2023-02-09T12:06:27.468Z,2.56
2023-02-09T12:09:16.140Z,2.57
2023-02-09T12:12:15.688Z,2.52
2023-02-09T12:14:55.518Z,2.67
2023-02-09T12:17:40.725Z,2.31
2023-02-09T12:20:38.438Z,2.50
2023-02-09T12:23:07.961Z,2.61
2023-02-09T12:25:48.702Z,2.55
2023-02-09T12:28:36.426Z,2.59
2023-02-09T12:31:14.062Z,2.74
2023-02-09T12:34:23.589Z,2.94
2023-02-09T12:37:27.306Z,3.11
2023-02-09T12:40:12.054Z,3.13
2023-02-09T12:42:50.662Z,3.15
2023-02-09T12:45:43.614Z,3.15
2023-02-09T12:48:09.966Z,3.13
2023-02-09T12:50:42.527Z,3.06
2023-02-09T12:53:31.074Z,3.20
2023-02-09T12:56:09.342Z,3.08
2023-02-09T12:58:44.883Z,3.09
2023-02-09T13:01:13.127Z,3.09
2023-02-09T13:03:51.271Z,3.25
2023-02-09T13:06:40.782Z,3.34
2023-02-09T13:09:14.731Z,3.36
2023-02-09T13:11:51.503Z,3.42
2023-02-09T13:14:22.238Z,3.27
2023-02-09T13:16:54.844Z,3.10
2023-02-09T13:19:50.885Z,3.13
2023-02-09T13:22:46.159Z,3.11
2023-02-09T13:25:22.079Z,3.15
2023-02-09T13:27:50.029Z,3.20
2023-02-09T13:30:28.704Z,3.12
2023-02-09T13:33:33.579Z,3.15
2023-02-09T13:35:59.913Z,3.16
2023-02-09T13:38:31.292Z,2.93
2023-02-09T13:40:58.364Z,3.00
2023-02-09T13:43:31.227Z,3.05
2023-02-09T13:45:59.152Z,3.14
2023-02-09T13:48:30.507Z,3.05
2023-02-09T13:51:01.034Z,3.22
2023-02-09T13:53:29.391Z,3.02
2023-02-09T13:55:58.507Z,2.98
2023-02-09T13:58:37.072Z,3.00
2023-02-09T14:01:16.335Z,3.10
2023-02-09T14:03:57.533Z,2.88
2023-02-09T14:06:34.100Z,2.94
2023-02-09T14:09:03.052Z,2.98
2023-02-09T14:11:42.773Z,2.98
2023-02-09T14:14:24.229Z,2.83
2023-02-09T14:17:25.163Z,3.01
2023-02-09T14:19:53.322Z,3.03
2023-02-09T14:22:39.869Z,2.83
2023-02-09T14:25:15.201Z,2.92
2023-02-09T14:27:48.373Z,3.08
2023-02-09T14:30:16.253Z,3.01
2023-02-09T14:32:48.228Z,3.06
2023-02-09T14:35:22.178Z,3.01
2023-02-09T14:37:49.926Z,2.95
2023-02-09T14:40:34.506Z,2.93
2023-02-09T14:43:19.803Z,2.95
2023-02-09T14:45:49.478Z,2.98
2023-02-09T14:48:20.844Z,3.04
2023-02-09T14:50:54.970Z,3.05
2023-02-09T14:53:23.322Z,3.03
2023-02-09T14:55:49.687Z,3.00
2023-02-09T14:58:20.574Z,2.99
2023-02-09T15:00:47.601Z,2.98
2023-02-09T15:03:14.070Z,3.01
2023-02-09T15:05:40.567Z,3.02
2023-02-09T15:08:11.220Z,3.02
2023-02-09T15:11:02.617Z,2.99
2023-02-09T15:13:30.488Z,2.94
2023-02-09T15:15:57.291Z,2.91
2023-02-09T15:18:26.744Z,2.98
2023-02-09T15:20:53.472Z,3.02
2023-02-09T15:23:20.033Z,2.98
2023-02-09T15:25:47.043Z,3.03
2023-02-09T15:28:27.960Z,2.91
2023-02-09T15:30:56.628Z,2.91
2023-02-09T15:33:23.367Z,2.83
2023-02-09T15:35:50.243Z,2.96
2023-02-09T15:38:18.327Z,2.97
2023-02-09T15:41:08.388Z,2.82
2023-02-09T15:43:56.311Z,2.76
2023-02-09T15:46:50.084Z,2.89
2023-02-09T15:49:16.500Z,2.90
2023-02-09T15:51:43.056Z,2.70
2023-02-09T15:54:15.557Z,2.72
2023-02-09T15:56:41.932Z,2.69
2023-02-09T15:59:17.944Z,2.49
2023-02-09T16:01:44.591Z,2.50
2023-02-09T16:04:14.356Z,2.50
2023-02-09T16:06:53.007Z,2.54
2023-02-09T16:09:28.963Z,2.47
2023-02-09T16:11:55.587Z,2.50
2023-02-09T16:14:24.931Z,2.50
2023-02-09T16:16:52.160Z,2.23
2023-02-09T16:19:21.122Z,2.10
2023-02-09T16:21:52.732Z,2.20
2023-02-09T16:24:28.935Z,2.27
2023-02-09T16:26:55.440Z,2.23
2023-02-09T16:29:21.853Z,2.22
2023-02-09T16:31:48.671Z,1.98
2023-02-09T16:34:15.596Z,2.14
2023-02-09T16:36:42.782Z,1.96
2023-02-09T16:39:17.787Z,1.95
2023-02-09T16:41:49.703Z,1.87
2023-02-09T16:44:22.038Z,2.00
2023-02-09T16:46:51.085Z,1.75
2023-02-09T16:49:32.047Z,1.61
2023-02-09T16:52:13.025Z,1.56
2023-02-09T16:54:44.120Z,1.67
2023-02-09T16:57:13.105Z,1.59
2023-02-09T16:59:39.486Z,1.53
2023-02-09T17:02:58.182Z,1.57
2023-02-09T17:05:28.232Z,1.36
2023-02-09T17:08:09.574Z,1.38
2023-02-09T17:10:36.130Z,1.43
2023-02-09T17:13:04.581Z,1.34
2023-02-09T17:15:36.454Z,1.36
2023-02-09T17:18:06.038Z,1.15
2023-02-09T17:20:43.978Z,1.05
2023-02-09T17:23:18.362Z,1.01
2023-02-09T17:25:45.397Z,0.95
2023-02-09T17:28:12.476Z,1.11
2023-02-09T17:30:39.782Z,1.36
2023-02-09T17:33:10.798Z,0.96
2023-02-09T17:38:30.769Z,1.06
2023-02-09T17:40:59.510Z,1.12
2023-02-09T17:43:26.195Z,1.16
2023-02-09T17:45:52.919Z,1.01
2023-02-09T17:48:21.466Z,0.78
2023-02-09T17:50:50.267Z,0.80
2023-02-09T17:53:23.877Z,0.82
2023-02-09T17:55:51.570Z,0.72
2023-02-09T17:58:18.541Z,0.91
2023-02-09T18:00:45.888Z,1.16
2023-02-09T18:03:19.084Z,1.01
2023-02-09T18:05:49.210Z,0.79
2023-02-09T18:08:15.900Z,0.80
2023-02-09T18:10:42.360Z,0.85
2023-02-09T18:13:19.048Z,1.03
2023-02-09T18:15:48.088Z,1.05
2023-02-09T18:18:15.272Z,0.84
2023-02-09T18:20:42.670Z,0.63
2023-02-09T18:23:14.982Z,0.84
2023-02-09T18:25:41.585Z,1.05
2023-02-09T18:28:18.141Z,0.84
2023-02-09T18:30:45.844Z,0.61
2023-02-09T18:33:20.692Z,0.68
2023-02-09T18:35:50.300Z,0.55
2023-02-09T18:38:20.234Z,0.50
2023-02-09T18:40:46.855Z,0.61
2023-02-09T18:43:14.943Z,0.56
2023-02-09T18:45:43.905Z,0.61
2023-02-09T18:48:11.857Z,0.67
2023-02-09T18:50:38.491Z,0.50
2023-02-09T18:53:04.989Z,0.34
2023-02-09T18:55:34.023Z,0.38
2023-02-09T18:58:03.715Z,0.46
2023-02-09T19:00:30.702Z,0.57
2023-02-09T19:02:58.322Z,0.48
2023-02-09T19:05:27.239Z,0.33
2023-02-09T19:07:55.466Z,0.26
2023-02-09T19:10:23.070Z,0.54
2023-02-09T19:12:50.089Z,0.64
2023-02-09T19:15:18.684Z,0.53
2023-02-09T19:17:46.432Z,0.68
2023-02-09T19:20:23.157Z,0.69
2023-02-09T19:22:51.946Z,0.65
2023-02-09T19:25:35.687Z,0.63
2023-02-09T19:28:02.392Z,0.73
2023-02-09T19:30:31.340Z,0.90
2023-02-09T19:33:02.148Z,0.81
2023-02-09T19:35:32.398Z,0.67
2023-02-09T19:37:59.057Z,0.81
2023-02-09T19:40:48.080Z,0.67
2023-02-09T19:43:14.583Z,0.61
2023-02-09T19:45:41.164Z,0.63
2023-02-09T19:48:08.547Z,0.69
2023-02-09T19:50:39.667Z,0.61
2023-02-09T19:53:08.668Z,0.38
2023-02-09T19:55:36.772Z,0.57
2023-02-09T19:58:03.859Z,0.30
2023-02-09T20:00:35.080Z,0.45
2023-02-09T20:03:01.824Z,0.63
2023-02-09T20:05:35.221Z,0.63
2023-02-09T20:08:02.248Z,0.43
2023-02-09T20:10:29.193Z,0.53
2023-02-09T20:12:56.553Z,0.25
2023-02-09T20:15:23.685Z,0.12
2023-02-09T20:17:53.143Z,0.01
2023-02-09T20:20:19.906Z,0.03
2023-02-09T20:22:49.425Z,-0.11
2023-02-09T20:25:16.461Z,-0.10
2023-02-09T20:27:43.083Z,-0.07
2023-02-09T20:30:10.801Z,-0.10
2023-02-09T20:32:37.326Z,0.19
2023-02-09T20:35:05.251Z,0.04
2023-02-09T20:37:31.733Z,-0.02
2023-02-09T20:39:58.460Z,0.05
2023-02-09T20:42:43.209Z,0.08
2023-02-09T20:45:32.993Z,0.00
2023-02-09T20:47:59.920Z,0.09
2023-02-09T20:50:26.579Z,0.15
2023-02-09T20:52:53.500Z,0.23
2023-02-09T20:55:22.589Z,0.11
2023-02-09T20:57:49.097Z,0.12
2023-02-09T21:00:16.079Z,0.05
2023-02-09T21:02:42.736Z,0.05
2023-02-09T21:05:09.457Z,0.03
2023-02-09T21:07:35.992Z,0.05
2023-02-09T21:10:02.567Z,-0.11
2023-02-09T21:12:29.109Z,-0.13
2023-02-09T21:14:56.507Z,-0.06
2023-02-09T21:17:23.472Z,-0.18
2023-02-09T21:19:50.260Z,-0.04
2023-02-09T21:22:17.267Z,-0.39
2023-02-09T21:24:44.069Z,-0.31
2023-02-09T21:27:10.614Z,-0.40
2023-02-09T21:29:37.173Z,-0.39
2023-02-09T21:32:06.127Z,-0.33
2023-02-09T21:34:32.623Z,-0.51
2023-02-09T21:36:59.391Z,-0.40
2023-02-09T21:39:25.799Z,-0.34
2023-02-09T21:42:10.990Z,-0.42
2023-02-09T21:44:37.707Z,-0.27
2023-02-09T21:47:04.358Z,-0.23
2023-02-09T21:49:31.944Z,-0.25
2023-02-09T21:51:59.371Z,-0.26
2023-02-09T21:54:28.236Z,-0.19
2023-02-09T21:56:55.477Z,-0.40
2023-02-09T21:59:21.868Z,-0.52
2023-02-09T22:01:48.259Z,-0.39
2023-02-09T22:04:14.804Z,-0.44
2023-02-09T22:06:41.816Z,-0.40
2023-02-09T22:09:08.574Z,-0.36
2023-02-09T22:11:35.234Z,-0.43
2023-02-09T22:14:01.713Z,-0.66
2023-02-09T22:16:29.374Z,-0.67
2023-02-09T22:18:56.503Z,-0.36
2023-02-09T22:21:22.915Z,-0.06
2023-02-09T22:23:49.421Z,-0.45
2023-02-09T22:26:15.961Z,-0.66
2023-02-09T22:28:43.063Z,-0.49
2023-02-09T22:31:12.684Z,-0.46
2023-02-09T22:33:39.476Z,-0.63
2023-02-09T22:36:12.650Z,-0.48
2023-02-09T22:38:39.041Z,-0.67
2023-02-09T22:41:23.343Z,-0.70
2023-02-09T22:43:53.263Z,-0.66
2023-02-09T22:46:24.969Z,-0.71
2023-02-09T22:48:53.363Z,-0.64
2023-02-09T22:51:21.006Z,-0.50
2023-02-09T22:53:48.013Z,-0.53
2023-02-09T22:56:14.678Z,-0.53
2023-02-09T22:58:41.103Z,-0.53
2023-02-09T23:01:08.219Z,-0.39
2023-02-09T23:03:35.057Z,-0.37
2023-02-09T23:06:07.669Z,-0.71
2023-02-09T23:08:35.329Z,-0.92
2023-02-09T23:11:07.708Z,-0.84
2023-02-09T23:13:36.062Z,-0.84
2023-02-09T23:16:21.190Z,-0.70
2023-02-09T23:18:49.591Z,-0.90
2023-02-09T23:21:17.181Z,-0.79
2023-02-09T23:23:44.187Z,-0.78
2023-02-09T23:26:11.276Z,-0.72
2023-02-09T23:28:37.899Z,-0.83
2023-02-09T23:31:12.057Z,-0.97
2023-02-09T23:33:38.872Z,-0.97
2023-02-09T23:36:06.894Z,-0.98
2023-02-09T23:38:33.581Z,-0.98
2023-02-09T23:41:00.144Z,-0.81
2023-02-09T23:43:26.715Z,-0.89
2023-02-09T23:45:53.552Z,-0.95
2023-02-09T23:48:20.143Z,-0.84
2023-02-09T23:50:46.589Z,-1.08
2023-02-09T23:53:14.589Z,-0.84
2023-02-09T23:55:41.052Z,-0.94
2023-02-09T23:58:07.521Z,-1.04
